sensor_id;sensor_type;location;lat;lon;timestamp;pressure;altitude;pressure_sealevel;temperature;humidity
7052;BME280;3567;52.444;13.556;2023-04-23T00:00:00;100396.94;;;14.07;61.65
7052;BME280;3567;52.444;13.556;2023-04-23T00:02:28;100397.72;;;14.02;61.83
7052;BME280;3567;52.444;13.556;2023-04-23T00:04:56;100392.84;;;13.99;62.11
7052;BME280;3567;52.444;13.556;2023-04-23T00:07:26;100388.00;;;13.96;61.75
7052;BME280;3567;52.444;13.556;2023-04-23T00:09:55;100396.31;;;13.95;62.17
7052;BME280;3567;52.444;13.556;2023-04-23T00:12:22;100390.13;;;13.94;62.27
7052;BME280;3567;52.444;13.556;2023-04-23T00:14:47;100387.69;;;13.93;62.43
7052;BME280;3567;52.444;13.556;2023-04-23T00:17:13;100380.13;;;13.89;62.27
7052;BME280;3567;52.444;13.556;2023-04-23T00:19:38;100376.06;;;13.87;62.91
7052;BME280;3567;52.444;13.556;2023-04-23T00:22:03;100377.66;;;13.83;62.66
7052;BME280;3567;52.444;13.556;2023-04-23T00:24:29;100391.38;;;13.81;62.70
7052;BME280;3567;52.444;13.556;2023-04-23T00:26:56;100381.13;;;13.78;63.15
7052;BME280;3567;52.444;13.556;2023-04-23T00:29:21;100381.94;;;13.79;62.94
7052;BME280;3567;52.444;13.556;2023-04-23T00:31:46;100380.88;;;13.80;62.48
7052;BME280;3567;52.444;13.556;2023-04-23T00:34:12;100380.88;;;13.80;63.25
7052;BME280;3567;52.444;13.556;2023-04-23T00:36:37;100379.81;;;13.81;63.25
7052;BME280;3567;52.444;13.556;2023-04-23T00:39:03;100378.72;;;13.82;63.01
7052;BME280;3567;52.444;13.556;2023-04-23T00:41:28;100376.59;;;13.84;63.09
7052;BME280;3567;52.444;13.556;2023-04-23T00:43:54;100370.69;;;13.87;63.11
7052;BME280;3567;52.444;13.556;2023-04-23T00:46:21;100371.22;;;13.89;63.23
7052;BME280;3567;52.444;13.556;2023-04-23T00:48:47;100369.13;;;13.91;63.60
7052;BME280;3567;52.444;13.556;2023-04-23T00:51:15;100369.91;;;13.92;63.64
7052;BME280;3567;52.444;13.556;2023-04-23T00:53:40;100362.09;;;13.90;63.57
7052;BME280;3567;52.444;13.556;2023-04-23T00:56:06;100361.00;;;13.86;64.00
7052;BME280;3567;52.444;13.556;2023-04-23T00:58:33;100365.81;;;13.84;64.09
7052;BME280;3567;52.444;13.556;2023-04-23T01:00:58;100362.84;;;13.80;63.97
7052;BME280;3567;52.444;13.556;2023-04-23T01:03:27;100364.97;;;13.78;64.35
7052;BME280;3567;52.444;13.556;2023-04-23T01:05:53;100357.16;;;13.77;64.44
7052;BME280;3567;52.444;13.556;2023-04-23T01:08:20;100366.03;;;13.77;63.94
7052;BME280;3567;52.444;13.556;2023-04-23T01:10:47;100363.91;;;13.79;63.83
7052;BME280;3567;52.444;13.556;2023-04-23T01:13:13;100364.72;;;13.80;64.31
7052;BME280;3567;52.444;13.556;2023-04-23T01:15:38;100354.78;;;13.80;64.48
7052;BME280;3567;52.444;13.556;2023-04-23T01:18:04;100355.81;;;13.79;64.62
7052;BME280;3567;52.444;13.556;2023-04-23T01:20:35;100357.47;;;13.80;64.70
7052;BME280;3567;52.444;13.556;2023-04-23T01:23:02;100361.25;;;13.84;64.72
7052;BME280;3567;52.444;13.556;2023-04-23T01:25:28;100358.53;;;13.84;64.78
7052;BME280;3567;52.444;13.556;2023-04-23T01:27:53;100364.78;;;13.85;64.85
7052;BME280;3567;52.444;13.556;2023-04-23T01:30:19;100354.28;;;13.88;64.37
7052;BME280;3567;52.444;13.556;2023-04-23T01:32:46;100364.25;;;13.93;64.54
7052;BME280;3567;52.444;13.556;2023-04-23T01:35:12;100364.00;;;13.95;64.26
7052;BME280;3567;52.444;13.556;2023-04-23T01:37:38;100358.38;;;13.96;64.23
7052;BME280;3567;52.444;13.556;2023-04-23T01:40:05;100358.91;;;13.98;64.40
7052;BME280;3567;52.444;13.556;2023-04-23T01:42:31;100365.91;;;13.99;64.60
7052;BME280;3567;52.444;13.556;2023-04-23T01:44:56;100359.72;;;13.99;64.73
7052;BME280;3567;52.444;13.556;2023-04-23T01:47:22;100362.69;;;13.97;65.30
7052;BME280;3567;52.444;13.556;2023-04-23T01:49:48;100363.75;;;13.96;64.81
7052;BME280;3567;52.444;13.556;2023-04-23T01:52:13;100356.72;;;13.95;65.33
7052;BME280;3567;52.444;13.556;2023-04-23T01:54:39;100353.22;;;13.95;65.33
7052;BME280;3567;52.444;13.556;2023-04-23T01:57:04;100351.63;;;13.94;65.45
7052;BME280;3567;52.444;13.556;2023-04-23T01:59:30;100347.56;;;13.91;66.30
7052;BME280;3567;52.444;13.556;2023-04-23T02:01:55;100349.16;;;13.87;66.19
7052;BME280;3567;52.444;13.556;2023-04-23T02:04:21;100346.16;;;13.83;66.51
7052;BME280;3567;52.444;13.556;2023-04-23T02:06:48;100347.50;;;13.81;66.37
7052;BME280;3567;52.444;13.556;2023-04-23T02:09:14;100351.28;;;13.80;66.53
7052;BME280;3567;52.444;13.556;2023-04-23T02:11:40;100341.00;;;13.77;66.21
7052;BME280;3567;52.444;13.556;2023-04-23T02:14:06;100341.00;;;13.77;66.89
7052;BME280;3567;52.444;13.556;2023-04-23T02:16:31;100333.44;;;13.74;67.12
7052;BME280;3567;52.444;13.556;2023-04-23T02:18:58;100335.06;;;13.70;68.03
7052;BME280;3567;52.444;13.556;2023-04-23T02:21:24;100329.88;;;13.63;69.22
7052;BME280;3567;52.444;13.556;2023-04-23T02:23:51;100327.66;;;13.55;69.90
7052;BME280;3567;52.444;13.556;2023-04-23T02:26:17;100326.56;;;13.51;70.37
7052;BME280;3567;52.444;13.556;2023-04-23T02:28:43;100324.13;;;13.49;69.44
7052;BME280;3567;52.444;13.556;2023-04-23T02:31:08;100331.63;;;13.47;70.39
7052;BME280;3567;52.444;13.556;2023-04-23T02:33:34;100341.84;;;13.45;70.33
7052;BME280;3567;52.444;13.556;2023-04-23T02:35:59;100331.63;;;13.47;69.83
7052;BME280;3567;52.444;13.556;2023-04-23T02:38:25;100342.13;;;13.44;71.91
7052;BME280;3567;52.444;13.556;2023-04-23T02:40:50;100339.88;;;13.35;72.70
7052;BME280;3567;52.444;13.556;2023-04-23T02:43:15;100336.34;;;13.30;74.17
7052;BME280;3567;52.444;13.556;2023-04-23T02:45:42;100332.81;;;13.24;76.11
7052;BME280;3567;52.444;13.556;2023-04-23T02:48:09;100345.88;;;13.16;78.19
7052;BME280;3567;52.444;13.556;2023-04-23T02:50:34;100328.06;;;13.09;80.63
7052;BME280;3567;52.444;13.556;2023-04-23T02:53:00;100317.69;;;12.91;83.15
7052;BME280;3567;52.444;13.556;2023-04-23T02:55:25;100320.22;;;12.76;85.24
7052;BME280;3567;52.444;13.556;2023-04-23T02:57:53;100317.34;;;12.61;87.46
7052;BME280;3567;52.444;13.556;2023-04-23T03:00:19;100340.59;;;12.50;88.79
7052;BME280;3567;52.444;13.556;2023-04-23T03:02:44;100333.81;;;12.42;90.04
7052;BME280;3567;52.444;13.556;2023-04-23T03:05:09;100335.31;;;12.33;91.19
7052;BME280;3567;52.444;13.556;2023-04-23T03:07:35;100334.09;;;12.24;92.65
7052;BME280;3567;52.444;13.556;2023-04-23T03:10:00;100337.84;;;12.23;93.61
7052;BME280;3567;52.444;13.556;2023-04-23T03:12:26;100336.50;;;12.20;94.86
7052;BME280;3567;52.444;13.556;2023-04-23T03:14:51;100336.16;;;12.17;95.16
7052;BME280;3567;52.444;13.556;2023-04-23T03:17:16;100336.66;;;12.14;95.70
7052;BME280;3567;52.444;13.556;2023-04-23T03:19:42;100328.84;;;12.12;96.58
7052;BME280;3567;52.444;13.556;2023-04-23T03:22:07;100330.19;;;12.10;97.31
7052;BME280;3567;52.444;13.556;2023-04-23T03:24:33;100322.34;;;12.08;98.04
7052;BME280;3567;52.444;13.556;2023-04-23T03:26:59;100314.00;;;12.04;98.79
7052;BME280;3567;52.444;13.556;2023-04-23T03:29:24;100316.91;;;12.03;99.51
7052;BME280;3567;52.444;13.556;2023-04-23T03:31:50;100311.25;;;11.99;100.00
7052;BME280;3567;52.444;13.556;2023-04-23T03:34:15;100305.56;;;11.96;100.00
7052;BME280;3567;52.444;13.556;2023-04-23T03:36:41;100294.75;;;11.91;100.00
7052;BME280;3567;52.444;13.556;2023-04-23T03:39:08;100297.09;;;11.87;100.00
7052;BME280;3567;52.444;13.556;2023-04-23T03:41:34;100283.13;;;11.85;100.00
7052;BME280;3567;52.444;13.556;2023-04-23T03:44:00;100303.78;;;11.85;100.00
7052;BME280;3567;52.444;13.556;2023-04-23T03:46:25;100290.63;;;11.83;100.00
7052;BME280;3567;52.444;13.556;2023-04-23T03:48:50;100296.00;;;11.83;100.00
7052;BME280;3567;52.444;13.556;2023-04-23T03:51:16;100303.25;;;11.83;100.00
7052;BME280;3567;52.444;13.556;2023-04-23T03:53:41;100303.00;;;11.84;100.00
7052;BME280;3567;52.444;13.556;2023-04-23T03:56:06;100299.78;;;11.87;100.00
7052;BME280;3567;52.444;13.556;2023-04-23T03:58:32;100295.81;;;11.90;100.00
7052;BME280;3567;52.444;13.556;2023-04-23T04:00:57;100299.88;;;11.92;100.00
7052;BME280;3567;52.444;13.556;2023-04-23T04:03:22;100301.81;;;11.97;100.00
7052;BME280;3567;52.444;13.556;2023-04-23T04:05:48;100313.69;;;12.01;100.00
7052;BME280;3567;52.444;13.556;2023-04-23T04:08:13;100310.19;;;12.00;100.00
7052;BME280;3567;52.444;13.556;2023-04-23T04:10:38;100306.69;;;12.00;100.00
7052;BME280;3567;52.444;13.556;2023-04-23T04:13:05;100308.78;;;11.98;100.00
7052;BME280;3567;52.444;13.556;2023-04-23T04:15:30;100317.91;;;11.97;100.00
7052;BME280;3567;52.444;13.556;2023-04-23T04:17:57;100311.19;;;11.94;100.00
7052;BME280;3567;52.444;13.556;2023-04-23T04:20:22;100322.97;;;11.93;100.00
7052;BME280;3567;52.444;13.556;2023-04-23T04:22:48;100321.34;;;11.92;100.00
7052;BME280;3567;52.444;13.556;2023-04-23T04:25:13;100321.91;;;11.94;100.00
7052;BME280;3567;52.444;13.556;2023-04-23T04:27:39;100316.28;;;11.96;100.00
7052;BME280;3567;52.444;13.556;2023-04-23T04:30:06;100306.38;;;11.96;100.00
7052;BME280;3567;52.444;13.556;2023-04-23T04:32:31;100318.25;;;12.00;100.00
7052;BME280;3567;52.444;13.556;2023-04-23T04:34:57;100312.34;;;12.03;100.00
7052;BME280;3567;52.444;13.556;2023-04-23T04:37:22;100315.09;;;12.09;100.00
7052;BME280;3567;52.444;13.556;2023-04-23T04:39:48;100315.69;;;12.11;100.00
7052;BME280;3567;52.444;13.556;2023-04-23T04:42:13;100313.88;;;12.16;100.00
7052;BME280;3567;52.444;13.556;2023-04-23T04:44:39;100322.25;;;12.20;100.00
7052;BME280;3567;52.444;13.556;2023-04-23T04:47:05;100321.25;;;12.26;100.00
7052;BME280;3567;52.444;13.556;2023-04-23T04:49:33;100324.25;;;12.29;100.00
7052;BME280;3567;52.444;13.556;2023-04-23T04:51:58;100318.13;;;12.34;100.00
7052;BME280;3567;52.444;13.556;2023-04-23T04:54:24;100317.13;;;12.40;100.00
7052;BME280;3567;52.444;13.556;2023-04-23T04:56:50;100316.94;;;12.47;100.00
7052;BME280;3567;52.444;13.556;2023-04-23T04:59:15;100316.75;;;12.53;100.00
7052;BME280;3567;52.444;13.556;2023-04-23T05:01:41;100324.88;;;12.58;100.00
7052;BME280;3567;52.444;13.556;2023-04-23T05:04:06;100332.97;;;12.64;100.00
7052;BME280;3567;52.444;13.556;2023-04-23T05:06:31;100326.59;;;12.70;100.00
7052;BME280;3567;52.444;13.556;2023-04-23T05:08:57;100330.97;;;12.76;100.00
7052;BME280;3567;52.444;13.556;2023-04-23T05:11:22;100332.63;;;12.82;100.00
7052;BME280;3567;52.444;13.556;2023-04-23T05:13:48;100333.75;;;12.86;100.00
7052;BME280;3567;52.444;13.556;2023-04-23T05:16:13;100330.84;;;12.93;100.00
7052;BME280;3567;52.444;13.556;2023-04-23T05:18:39;100340.59;;;12.99;100.00
7052;BME280;3567;52.444;13.556;2023-04-23T05:21:06;100336.66;;;13.06;100.00
7052;BME280;3567;52.444;13.556;2023-04-23T05:23:32;100339.13;;;13.13;100.00
7052;BME280;3567;52.444;13.556;2023-04-23T05:25:57;100335.75;;;13.23;99.74
7052;BME280;3567;52.444;13.556;2023-04-23T05:28:23;100337.16;;;13.30;100.00
7052;BME280;3567;52.444;13.556;2023-04-23T05:30:49;100333.19;;;13.38;100.00
7052;BME280;3567;52.444;13.556;2023-04-23T05:33:15;100341.84;;;13.45;99.40
7052;BME280;3567;52.444;13.556;2023-04-23T05:35:41;100344.31;;;13.52;98.88
7052;BME280;3567;52.444;13.556;2023-04-23T05:38:06;100339.28;;;13.60;99.03
7052;BME280;3567;52.444;13.556;2023-04-23T05:40:32;100344.16;;;13.69;98.46
7052;BME280;3567;52.444;13.556;2023-04-23T05:42:58;100348.53;;;13.75;97.66
7052;BME280;3567;52.444;13.556;2023-04-23T05:45:23;100355.00;;;13.79;97.45
7052;BME280;3567;52.444;13.556;2023-04-23T05:47:48;100350.72;;;13.83;97.48
7052;BME280;3567;52.444;13.556;2023-04-23T05:50:14;100347.78;;;13.84;97.33
7052;BME280;3567;52.444;13.556;2023-04-23T05:52:39;100349.19;;;13.92;97.57
7052;BME280;3567;52.444;13.556;2023-04-23T05:55:05;100350.28;;;13.96;97.32
7052;BME280;3567;52.444;13.556;2023-04-23T05:57:32;100348.19;;;14.03;96.59
7052;BME280;3567;52.444;13.556;2023-04-23T05:59:57;100350.91;;;14.08;97.12
7052;BME280;3567;52.444;13.556;2023-04-23T06:02:22;100344.72;;;14.13;97.12
7052;BME280;3567;52.444;13.556;2023-04-23T06:04:48;100347.16;;;14.14;97.23
7052;BME280;3567;52.444;13.556;2023-04-23T06:07:13;100350.16;;;14.18;97.40
7052;BME280;3567;52.444;13.556;2023-04-23T06:09:39;100353.91;;;14.17;97.93
7052;BME280;3567;52.444;13.556;2023-04-23T06:12:05;100346.88;;;14.16;100.00
7052;BME280;3567;52.444;13.556;2023-04-23T06:14:30;100351.22;;;14.17;100.00
7052;BME280;3567;52.444;13.556;2023-04-23T06:16:56;100346.66;;;14.18;100.00
7052;BME280;3567;52.444;13.556;2023-04-23T06:19:21;100346.09;;;14.21;100.00
7052;BME280;3567;52.444;13.556;2023-04-23T06:21:50;100350.97;;;14.24;100.00
7052;BME280;3567;52.444;13.556;2023-04-23T06:24:15;100345.84;;;14.27;100.00
7052;BME280;3567;52.444;13.556;2023-04-23T06:26:40;100350.72;;;14.30;100.00
7052;BME280;3567;52.444;13.556;2023-04-23T06:29:06;100354.53;;;14.34;100.00
7052;BME280;3567;52.444;13.556;2023-04-23T06:31:31;100356.97;;;14.36;100.00
7052;BME280;3567;52.444;13.556;2023-04-23T06:33:56;100350.50;;;14.37;100.00
7052;BME280;3567;52.444;13.556;2023-04-23T06:36:22;100339.19;;;14.40;100.00
7052;BME280;3567;52.444;13.556;2023-04-23T06:38:47;100348.91;;;14.46;100.00
7052;BME280;3567;52.444;13.556;2023-04-23T06:41:13;100351.41;;;14.53;100.00
7052;BME280;3567;52.444;13.556;2023-04-23T06:43:38;100352.50;;;14.62;100.00
7052;BME280;3567;52.444;13.556;2023-04-23T06:46:03;100351.19;;;14.70;100.00
7052;BME280;3567;52.444;13.556;2023-04-23T06:48:29;100359.84;;;14.77;100.00
7052;BME280;3567;52.444;13.556;2023-04-23T06:50:56;100352.84;;;14.86;100.00
7052;BME280;3567;52.444;13.556;2023-04-23T06:53:22;100351.25;;;14.95;100.00
7052;BME280;3567;52.444;13.556;2023-04-23T06:55:47;100353.44;;;15.03;100.00
7052;BME280;3567;52.444;13.556;2023-04-23T06:58:14;100354.50;;;15.07;100.00
7052;BME280;3567;52.444;13.556;2023-04-23T07:00:40;100346.97;;;15.09;99.27
7052;BME280;3567;52.444;13.556;2023-04-23T07:03:06;100355.59;;;15.11;99.71
7052;BME280;3567;52.444;13.556;2023-04-23T07:05:31;100358.84;;;15.18;98.99
7052;BME280;3567;52.444;13.556;2023-04-23T07:07:56;100356.97;;;15.24;98.92
7052;BME280;3567;52.444;13.556;2023-04-23T07:10:22;100356.16;;;15.18;98.04
7052;BME280;3567;52.444;13.556;2023-04-23T07:12:48;100359.91;;;15.17;98.65
7052;BME280;3567;52.444;13.556;2023-04-23T07:15:14;100361.81;;;15.17;98.56
7052;BME280;3567;52.444;13.556;2023-04-23T07:17:39;100365.59;;;15.16;99.09
7052;BME280;3567;52.444;13.556;2023-04-23T07:20:06;100357.50;;;15.16;99.33
7052;BME280;3567;52.444;13.556;2023-04-23T07:22:33;100367.47;;;15.15;99.98
7052;BME280;3567;52.444;13.556;2023-04-23T07:24:59;100365.84;;;15.09;99.02
7052;BME280;3567;52.444;13.556;2023-04-23T07:27:24;100365.84;;;14.99;100.00
7052;BME280;3567;52.444;13.556;2023-04-23T07:29:50;100373.91;;;14.89;99.52
7052;BME280;3567;52.444;13.556;2023-04-23T07:32:15;100370.91;;;14.85;99.55
7052;BME280;3567;52.444;13.556;2023-04-23T07:34:41;100379.53;;;14.82;99.97
7052;BME280;3567;52.444;13.556;2023-04-23T07:37:06;100381.13;;;14.78;100.00
7052;BME280;3567;52.444;13.556;2023-04-23T07:39:32;100385.44;;;14.74;100.00
7052;BME280;3567;52.444;13.556;2023-04-23T07:41:57;100386.22;;;14.70;100.00
7052;BME280;3567;52.444;13.556;2023-04-23T07:44:23;100393.72;;;14.57;100.00
7052;BME280;3567;52.444;13.556;2023-04-23T07:46:49;100378.00;;;14.39;100.00
7052;BME280;3567;52.444;13.556;2023-04-23T07:49:14;100387.09;;;14.23;100.00
7052;BME280;3567;52.444;13.556;2023-04-23T07:51:40;100375.66;;;14.05;100.00
7052;BME280;3567;52.444;13.556;2023-04-23T07:54:08;100376.91;;;13.93;100.00
7052;BME280;3567;52.444;13.556;2023-04-23T07:56:33;100382.53;;;13.86;100.00
7052;BME280;3567;52.444;13.556;2023-04-23T07:59:00;100383.84;;;13.83;100.00
7052;BME280;3567;52.444;13.556;2023-04-23T08:01:26;100387.31;;;13.79;100.00
7052;BME280;3567;52.444;13.556;2023-04-23T08:03:52;100375.97;;;13.72;100.00
7052;BME280;3567;52.444;13.556;2023-04-23T08:06:20;100382.44;;;13.71;100.00
7052;BME280;3567;52.444;13.556;2023-04-23T08:08:46;100386.44;;;13.68;100.00
7052;BME280;3567;52.444;13.556;2023-04-23T08:11:13;100377.81;;;13.66;100.00
7052;BME280;3567;52.444;13.556;2023-04-23T08:13:38;100382.69;;;13.69;100.00
7052;BME280;3567;52.444;13.556;2023-04-23T08:16:04;100380.53;;;13.71;100.00
7052;BME280;3567;52.444;13.556;2023-04-23T08:18:29;100378.63;;;13.67;100.00
7052;BME280;3567;52.444;13.556;2023-04-23T08:20:55;100381.63;;;13.70;100.00
7052;BME280;3567;52.444;13.556;2023-04-23T08:23:21;100380.53;;;13.71;100.00
7052;BME280;3567;52.444;13.556;2023-04-23T08:25:46;100387.28;;;13.74;100.00
7052;BME280;3567;52.444;13.556;2023-04-23T08:28:12;100380.28;;;13.73;100.00
7052;BME280;3567;52.444;13.556;2023-04-23T08:30:37;100372.19;;;13.73;100.00
7052;BME280;3567;52.444;13.556;2023-04-23T08:33:03;100380.31;;;13.78;100.00
7052;BME280;3567;52.444;13.556;2023-04-23T08:35:41;100383.09;;;13.88;100.00
7052;BME280;3567;52.444;13.556;2023-04-23T08:38:07;100387.19;;;14.01;100.00
7052;BME280;3567;52.444;13.556;2023-04-23T08:40:35;100378.38;;;14.10;100.00
7052;BME280;3567;52.444;13.556;2023-04-23T08:43:03;100382.19;;;14.20;100.00
7052;BME280;3567;52.444;13.556;2023-04-23T08:45:31;100377.41;;;14.32;100.00
7052;BME280;3567;52.444;13.556;2023-04-23T08:47:59;100373.69;;;14.43;100.00
7052;BME280;3567;52.444;13.556;2023-04-23T08:50:25;100375.97;;;14.61;100.00
7052;BME280;3567;52.444;13.556;2023-04-23T08:52:54;100380.06;;;14.79;100.00
7052;BME280;3567;52.444;13.556;2023-04-23T08:55:20;100388.75;;;15.02;100.00
7052;BME280;3567;52.444;13.556;2023-04-23T08:57:46;100382.34;;;15.18;100.00
7052;BME280;3567;52.444;13.556;2023-04-23T09:00:14;100382.88;;;15.25;100.00
7052;BME280;3567;52.444;13.556;2023-04-23T09:02:41;100384.19;;;15.17;100.00
7052;BME280;3567;52.444;13.556;2023-04-23T09:05:07;100394.44;;;15.15;100.00
7052;BME280;3567;52.444;13.556;2023-04-23T09:07:33;100393.94;;;15.18;100.00
7052;BME280;3567;52.444;13.556;2023-04-23T09:10:03;100396.06;;;15.16;100.00
7052;BME280;3567;52.444;13.556;2023-04-23T09:12:29;100388.78;;;15.12;100.00
7052;BME280;3567;52.444;13.556;2023-04-23T09:14:54;100390.41;;;15.08;100.00
7052;BME280;3567;52.444;13.556;2023-04-23T09:17:21;100392.25;;;15.07;100.00
7052;BME280;3567;52.444;13.556;2023-04-23T09:19:49;100384.19;;;15.02;100.00
7052;BME280;3567;52.444;13.556;2023-04-23T09:22:36;100392.56;;;15.11;100.00
7052;BME280;3567;52.444;13.556;2023-04-23T09:25:01;100391.78;;;15.41;100.00
7052;BME280;3567;52.444;13.556;2023-04-23T09:27:27;100391.25;;;15.44;100.00
7052;BME280;3567;52.444;13.556;2023-04-23T09:29:53;100384.22;;;15.48;100.00
7052;BME280;3567;52.444;13.556;2023-04-23T09:32:30;100388.53;;;15.59;100.00
7052;BME280;3567;52.444;13.556;2023-04-23T09:34:56;100384.50;;;15.62;100.00
7052;BME280;3567;52.444;13.556;2023-04-23T09:37:24;100388.53;;;15.54;100.00
7052;BME280;3567;52.444;13.556;2023-04-23T09:39:50;100382.88;;;15.35;100.00
7052;BME280;3567;52.444;13.556;2023-04-23T09:42:22;100389.59;;;15.23;100.00
7052;BME280;3567;52.444;13.556;2023-04-23T09:44:58;100389.06;;;15.15;100.00
7052;BME280;3567;52.444;13.556;2023-04-23T09:47:24;100389.06;;;15.15;100.00
7052;BME280;3567;52.444;13.556;2023-04-23T09:49:50;100404.41;;;15.05;100.00
7052;BME280;3567;52.444;13.556;2023-04-23T09:52:16;100401.69;;;15.00;100.00
7052;BME280;3567;52.444;13.556;2023-04-23T09:54:42;100394.34;;;14.80;100.00
7052;BME280;3567;52.444;13.556;2023-04-23T09:57:10;100402.94;;;14.66;100.00
7052;BME280;3567;52.444;13.556;2023-04-23T09:59:35;100400.69;;;14.48;100.00
7052;BME280;3567;52.444;13.556;2023-04-23T10:02:05;100413.47;;;14.26;100.00
7052;BME280;3567;52.444;13.556;2023-04-23T10:04:31;100409.88;;;14.10;100.00
7052;BME280;3567;52.444;13.556;2023-04-23T10:07:05;100418.44;;;13.97;100.00
7052;BME280;3567;52.444;13.556;2023-04-23T10:09:33;100426.44;;;13.86;100.00
7052;BME280;3567;52.444;13.556;2023-04-23T10:12:00;100419.38;;;13.80;100.00
7052;BME280;3567;52.444;13.556;2023-04-23T10:14:27;100423.91;;;13.75;100.00
7052;BME280;3567;52.444;13.556;2023-04-23T10:16:57;100432.03;;;13.80;100.00
7052;BME280;3567;52.444;13.556;2023-04-23T10:19:24;100433.13;;;13.84;100.00
7052;BME280;3567;52.444;13.556;2023-04-23T10:21:54;100437.47;;;13.85;100.00
7052;BME280;3567;52.444;13.556;2023-04-23T10:24:24;100438.50;;;13.84;100.00
7052;BME280;3567;52.444;13.556;2023-04-23T10:26:55;100437.38;;;13.75;100.00
7052;BME280;3567;52.444;13.556;2023-04-23T10:29:25;100437.69;;;13.83;100.00
7052;BME280;3567;52.444;13.556;2023-04-23T10:31:52;100441.28;;;13.94;100.00
7052;BME280;3567;52.444;13.556;2023-04-23T10:34:19;100441.03;;;13.96;100.00
7052;BME280;3567;52.444;13.556;2023-04-23T10:36:45;100436.78;;;14.05;100.00
7052;BME280;3567;52.444;13.556;2023-04-23T10:39:11;100442.28;;;14.20;100.00
7052;BME280;3567;52.444;13.556;2023-04-23T10:41:40;100432.34;;;14.26;100.00
7052;BME280;3567;52.444;13.556;2023-04-23T10:44:10;100434.56;;;14.34;100.00
7052;BME280;3567;52.444;13.556;2023-04-23T10:46:36;100441.69;;;14.50;100.00
7052;BME280;3567;52.444;13.556;2023-04-23T10:49:11;100449.25;;;14.58;100.00
7052;BME280;3567;52.444;13.556;2023-04-23T10:51:39;100444.13;;;14.57;100.00
7052;BME280;3567;52.444;13.556;2023-04-23T10:54:04;100447.94;;;14.61;100.00
7052;BME280;3567;52.444;13.556;2023-04-23T10:56:30;100445.53;;;14.70;100.00
7052;BME280;3567;52.444;13.556;2023-04-23T10:58:56;100440.28;;;15.00;100.00
7052;BME280;3567;52.444;13.556;2023-04-23T11:01:27;100444.97;;;15.35;100.00
7052;BME280;3567;52.444;13.556;2023-04-23T11:03:54;100439.31;;;15.57;100.00
7052;BME280;3567;52.444;13.556;2023-04-23T11:11:55;100454.13;;;15.50;100.00
7052;BME280;3567;52.444;13.556;2023-04-23T11:14:53;100452.25;;;15.35;100.00
7052;BME280;3567;52.444;13.556;2023-04-23T11:17:23;100451.13;;;15.20;100.00
7052;BME280;3567;52.444;13.556;2023-04-23T11:20:17;100454.34;;;15.17;100.00
7052;BME280;3567;52.444;13.556;2023-04-23T11:22:48;100454.84;;;15.04;100.00
7052;BME280;3567;52.444;13.556;2023-04-23T11:25:15;100455.34;;;14.96;100.00
7052;BME280;3567;52.444;13.556;2023-04-23T11:27:44;100460.22;;;14.94;100.00
7052;BME280;3567;52.444;13.556;2023-04-23T11:30:18;100453.47;;;14.91;100.00
7052;BME280;3567;52.444;13.556;2023-04-23T11:32:45;100452.63;;;14.86;100.00
7052;BME280;3567;52.444;13.556;2023-04-23T11:35:13;100450.50;;;14.93;99.98
7052;BME280;3567;52.444;13.556;2023-04-23T11:37:40;100445.22;;;15.39;100.00
7052;BME280;3567;52.444;13.556;2023-04-23T11:40:07;100444.72;;;16.03;97.66
7052;BME280;3567;52.444;13.556;2023-04-23T11:42:44;100455.97;;;16.56;95.95
7052;BME280;3567;52.444;13.556;2023-04-23T11:45:26;100449.88;;;17.05;94.61
7052;BME280;3567;52.444;13.556;2023-04-23T11:47:54;100445.44;;;17.24;90.96
7052;BME280;3567;52.444;13.556;2023-04-23T11:50:29;100456.31;;;17.14;89.50
7052;BME280;3567;52.444;13.556;2023-04-23T11:52:57;100447.41;;;17.09;84.12
7052;BME280;3567;52.444;13.556;2023-04-23T11:55:28;100442.75;;;17.19;87.01
7052;BME280;3567;52.444;13.556;2023-04-23T11:57:53;100438.94;;;17.25;85.43
7052;BME280;3567;52.444;13.556;2023-04-23T12:00:21;100435.44;;;17.64;85.32
7052;BME280;3567;52.444;13.556;2023-04-23T12:05:26;100448.41;;;18.30;77.64
7052;BME280;3567;52.444;13.556;2023-04-23T12:07:53;100454.25;;;18.43;78.89
7052;BME280;3567;52.444;13.556;2023-04-23T12:10:19;100454.94;;;18.53;76.77
7052;BME280;3567;52.444;13.556;2023-04-23T12:12:49;100458.34;;;18.64;76.90
7052;BME280;3567;52.444;13.556;2023-04-23T12:15:14;100451.84;;;18.65;74.90
7052;BME280;3567;52.444;13.556;2023-04-23T12:17:40;100445.03;;;18.44;73.48
7052;BME280;3567;52.444;13.556;2023-04-23T12:20:09;100458.16;;;18.31;74.10
7052;BME280;3567;52.444;13.556;2023-04-23T12:22:36;100449.88;;;18.47;74.55
7052;BME280;3567;52.444;13.556;2023-04-23T12:25:04;100466.84;;;18.57;72.88
7052;BME280;3567;52.444;13.556;2023-04-23T12:27:31;100466.34;;;18.26;69.80
7052;BME280;3567;52.444;13.556;2023-04-23T12:29:59;100463.78;;;18.11;71.68
7052;BME280;3567;52.444;13.556;2023-04-23T12:32:24;100466.31;;;18.02;72.46
7052;BME280;3567;52.444;13.556;2023-04-23T12:34:52;100467.63;;;18.05;73.17
7052;BME280;3567;52.444;13.556;2023-04-23T12:37:17;100461.50;;;18.23;72.95
7052;BME280;3567;52.444;13.556;2023-04-23T12:39:43;100460.75;;;18.18;72.37
7052;BME280;3567;52.444;13.556;2023-04-23T12:42:08;100462.31;;;18.24;72.91
7052;BME280;3567;52.444;13.556;2023-04-23T12:44:36;100466.34;;;18.26;73.38
7052;BME280;3567;52.444;13.556;2023-04-23T12:47:07;100457.84;;;18.38;72.63
7052;BME280;3567;52.444;13.556;2023-04-23T12:49:35;100459.66;;;18.43;73.02
7052;BME280;3567;52.444;13.556;2023-04-23T12:52:02;100457.38;;;18.55;72.56
7052;BME280;3567;52.444;13.556;2023-04-23T12:54:30;100453.31;;;18.81;72.56
7052;BME280;3567;52.444;13.556;2023-04-23T12:56:57;100453.16;;;19.34;71.28
7052;BME280;3567;52.444;13.556;2023-04-23T12:59:22;100442.03;;;20.01;69.80